»·PEaware :: ASA934 KSEA-KSFO

ASA934 :: KSEA-KSFO

FLIGHT INFORMATION

Flight Status: Arrived
Operator:
Alaska Airlines
More flights by this operator :: More flights under this callsign
Pilot: Mariano P. (20682)
Aircraft: BOEING 737-900
(B739)
More flights by this aircraft type
Origin: KSEA Seattle-Tacoma Intl
United States
Destination: KSFO San Francisco Intl
United States
More flights between these airports :: More routes between these airports
Route: HAROB6 ERAVE Q1 ETCHY MLBEC BDEGA3
File this flight plan on PilotEdge
Remarks: RMK / FIRST TIME ON PILOTEDGE
Altitude:
(Current/Filed)
37,000ft
Speed:
(Current/Filed)
450kts
Departed: 03-Oct-18 01:15 PM
Arrived: 03-Oct-18 02:54 PM
Distance/Time
Traveled:
590nm/1:39
Distance/Time
To Go:
Arrived

Flight Plot

Page will automatically refresh every two minutes.

Flight plan parsing failed; only flown route is shown


Map Options




Map Legend


Flown Route
Filed Route
Departure Airport
Arrival Airport
Navaid (VOR, NDB)
Fix

Horizontal Profiles

Position Reports

Time Latitude Longitude Heading Altitude Ground
Speed
03-Oct-18 12:45 47.446018 -122.303057 282 440ft 0kts
03-Oct-18 12:46 47.446018 -122.303057 282 440ft 0kts
03-Oct-18 12:47 47.446018 -122.303057 282 440ft 0kts
03-Oct-18 12:48 47.446018 -122.303057 282 440ft 0kts
03-Oct-18 12:49 47.446018 -122.303057 282 440ft 0kts
03-Oct-18 12:50 47.446018 -122.303057 282 440ft 0kts
03-Oct-18 12:51 47.446018 -122.303057 282 440ft 0kts
03-Oct-18 12:52 47.446018 -122.303057 282 440ft 0kts
03-Oct-18 12:53 47.446018 -122.303057 282 440ft 0kts
03-Oct-18 12:54 47.446018 -122.303057 282 440ft 0kts
03-Oct-18 12:55 47.446018 -122.303057 282 440ft 0kts
03-Oct-18 12:56 47.446018 -122.303057 282 440ft 0kts
03-Oct-18 12:57 47.446018 -122.303057 282 441ft 0kts
03-Oct-18 12:58 47.446018 -122.303057 282 440ft 0kts
03-Oct-18 12:59 47.446018 -122.303057 282 440ft 0kts
03-Oct-18 13:00 47.446018 -122.303057 282 440ft 0kts
03-Oct-18 13:01 47.446018 -122.303057 282 440ft 0kts
03-Oct-18 13:02 47.446018 -122.303057 282 440ft 0kts
03-Oct-18 13:03 47.446018 -122.303057 282 440ft 0kts
03-Oct-18 13:04 47.446012 -122.303014 283 440ft 1kts
03-Oct-18 13:05 47.445690 -122.302377 12 440ft 2kts
03-Oct-18 13:06 47.445384 -122.302570 24 440ft 0kts
03-Oct-18 13:07 47.445384 -122.302570 24 440ft 0kts
03-Oct-18 13:08 47.445892 -122.302233 23 440ft 11kts
03-Oct-18 13:09 47.447436 -122.303487 305 440ft 9kts
03-Oct-18 13:10 47.447925 -122.304640 300 440ft 0kts
03-Oct-18 13:11 47.448067 -122.305759 280 440ft 14kts
03-Oct-18 13:12 47.451522 -122.306277 0 440ft 16kts
03-Oct-18 13:13 47.456140 -122.306236 0 440ft 20kts
03-Oct-18 13:14 47.461125 -122.306197 359 441ft 18kts
03-Oct-18 13:15 47.463682 -122.309162 269 440ft 8kts
03-Oct-18 13:16 47.463683 -122.310456 268 440ft 9kts
03-Oct-18 13:17 47.452697 -122.311074 179 441ft 140kts
03-Oct-18 13:18 47.408798 -122.307973 174 2925ft 166kts
03-Oct-18 13:19 47.353016 -122.311376 180 4420ft 247kts
03-Oct-18 13:20 47.310027 -122.358243 254 6814ft 273kts
03-Oct-18 13:21 47.307261 -122.472767 272 10199ft 288kts
03-Oct-18 13:22 47.311418 -122.602467 272 12001ft 353kts
03-Oct-18 13:23 47.313833 -122.752250 264 14728ft 374kts
03-Oct-18 13:24 47.281314 -122.901095 247 17360ft 390kts
03-Oct-18 13:25 47.232227 -123.045249 227 19691ft 403kts
03-Oct-18 13:26 47.143087 -123.150509 216 21666ft 418kts
03-Oct-18 13:27 47.047384 -123.253760 215 22999ft 436kts
03-Oct-18 13:28 46.950027 -123.358345 214 23017ft 433kts
03-Oct-18 13:29 46.837477 -123.398947 179 24199ft 416kts
03-Oct-18 13:30 46.718730 -123.395599 178 25809ft 421kts
03-Oct-18 13:31 46.599362 -123.392033 177 26811ft 437kts
03-Oct-18 13:32 46.476404 -123.388156 176 27737ft 450kts
03-Oct-18 13:33 46.348839 -123.384074 178 28397ft 466kts
03-Oct-18 13:34 46.218938 -123.380136 178 29486ft 468kts
03-Oct-18 13:35 46.090606 -123.376224 177 30612ft 466kts
03-Oct-18 13:36 45.961862 -123.372319 177 31812ft 460kts
03-Oct-18 13:37 45.834744 -123.368280 178 32601ft 461kts
03-Oct-18 13:38 45.706300 -123.364494 178 33322ft 462kts
03-Oct-18 13:39 45.579004 -123.360691 178 34177ft 457kts
03-Oct-18 13:40 45.451443 -123.356918 177 34700ft 459kts
03-Oct-18 13:41 45.325132 -123.353150 176 35608ft 450kts
03-Oct-18 13:42 45.202415 -123.349447 177 36892ft 428kts
03-Oct-18 13:43 45.082096 -123.345933 176 37022ft 436kts
03-Oct-18 13:44 44.961251 -123.342351 177 37007ft 436kts
03-Oct-18 13:45 44.915549 -123.341006 177 37012ft 441kts
03-Oct-18 13:49 44.338342 -123.322436 176 37019ft 436kts
03-Oct-18 13:50 44.215746 -123.317524 177 37011ft 447kts
03-Oct-18 13:51 44.089991 -123.312443 177 37007ft 456kts
03-Oct-18 13:52 43.962954 -123.307435 177 37006ft 456kts
03-Oct-18 13:53 43.837846 -123.302529 176 37004ft 443kts
03-Oct-18 13:54 43.714419 -123.297479 178 37007ft 439kts
03-Oct-18 13:55 43.593713 -123.292873 178 37006ft 432kts
03-Oct-18 13:56 43.472306 -123.288205 177 37005ft 442kts
03-Oct-18 13:57 43.348425 -123.283350 177 37001ft 449kts
03-Oct-18 13:58 43.222296 -123.278495 177 36998ft 455kts
03-Oct-18 13:59 43.096247 -123.273626 178 36999ft 454kts
03-Oct-18 14:00 42.972839 -123.268907 177 36998ft 450kts
03-Oct-18 14:01 42.847729 -123.264115 177 36995ft 450kts
03-Oct-18 14:02 42.722321 -123.259325 177 36998ft 452kts
03-Oct-18 14:03 42.596164 -123.254542 178 36998ft 453kts
03-Oct-18 14:04 42.470281 -123.249804 178 36995ft 454kts
03-Oct-18 14:05 42.344019 -123.245135 178 36992ft 452kts
03-Oct-18 14:06 42.219036 -123.240524 178 36986ft 448kts
03-Oct-18 14:07 42.093871 -123.235947 179 36982ft 452kts
03-Oct-18 14:08 41.967615 -123.231412 178 36987ft 452kts
03-Oct-18 14:09 41.843143 -123.226798 178 36985ft 445kts
03-Oct-18 14:10 41.718054 -123.222281 177 36988ft 454kts
03-Oct-18 14:11 41.591245 -123.217678 178 36985ft 460kts
03-Oct-18 14:12 41.465685 -123.213364 177 36982ft 466kts
03-Oct-18 14:13 41.335030 -123.208870 177 36985ft 468kts
03-Oct-18 14:14 41.205145 -123.205570 177 36985ft 469kts
03-Oct-18 14:15 41.075040 -123.202237 178 36976ft 470kts
03-Oct-18 14:16 40.943288 -123.198961 178 36975ft 473kts
03-Oct-18 14:17 40.811471 -123.195654 178 36976ft 471kts
03-Oct-18 14:18 40.680479 -123.192380 178 36975ft 471kts
03-Oct-18 14:19 40.549337 -123.189116 178 36974ft 471kts
03-Oct-18 14:20 40.418244 -123.185864 178 36973ft 473kts
03-Oct-18 14:21 40.286625 -123.182610 178 36972ft 474kts
03-Oct-18 14:22 40.154482 -123.179349 178 36971ft 474kts
03-Oct-18 14:23 40.044351 -123.176651 178 36971ft 474kts
03-Oct-18 14:24 39.890202 -123.171504 177 36970ft 475kts
03-Oct-18 14:25 39.780394 -123.166340 177 36970ft 475kts
03-Oct-18 14:26 39.628481 -123.159312 177 36971ft 473kts
03-Oct-18 14:27 39.519109 -123.154261 177 36974ft 471kts
03-Oct-18 14:28 39.370959 -123.147457 177 36979ft 466kts
03-Oct-18 14:29 39.265374 -123.142619 177 37351ft 453kts
03-Oct-18 14:30 39.140595 -123.136938 176 35009ft 444kts
03-Oct-18 14:31 39.026051 -123.081644 148 32234ft 441kts
03-Oct-18 14:32 38.923624 -122.998570 146 30023ft 428kts
03-Oct-18 14:33 38.815348 -122.940986 165 28092ft 427kts
03-Oct-18 14:34 38.701144 -122.907449 166 26344ft 415kts
03-Oct-18 14:35 38.590542 -122.874909 166 24682ft 401kts
03-Oct-18 14:36 38.482754 -122.843122 166 23026ft 392kts
03-Oct-18 14:37 38.377598 -122.812248 166 21444ft 382kts
03-Oct-18 14:38 38.274888 -122.782207 166 19872ft 375kts
03-Oct-18 14:39 38.176233 -122.753392 166 18358ft 365kts
03-Oct-18 14:40 38.078204 -122.724910 167 16946ft 356kts
03-Oct-18 14:41 37.982388 -122.697189 167 15502ft 349kts
03-Oct-18 14:42 37.890965 -122.662123 149 14076ft 342kts
03-Oct-18 14:43 37.818100 -122.586903 139 12673ft 330kts
03-Oct-18 14:44 37.750416 -122.515359 139 11361ft 305kts
03-Oct-18 14:45 37.687708 -122.448696 138 11041ft 293kts
03-Oct-18 14:46 37.628708 -122.386081 139 11013ft 253kts
03-Oct-18 14:47 37.569499 -122.341231 154 10118ft 249kts
03-Oct-18 14:48 37.511496 -122.300282 126 8789ft 242kts
03-Oct-18 14:49 37.478179 -122.228608 119 7132ft 232kts
03-Oct-18 14:50 37.447497 -122.157014 97 5709ft 232kts
03-Oct-18 14:51 37.491353 -122.135244 326 4320ft 223kts
03-Oct-18 14:52 37.539045 -122.182792 302 3036ft 217kts
03-Oct-18 14:53 37.566381 -122.250305 298 1907ft 204kts
03-Oct-18 14:54 37.589418 -122.305190 298 973ft 163kts
03-Oct-18 14:55 37.609843 -122.354008 299 144ft 151kts
03-Oct-18 14:56 37.619002 -122.377795 258 21ft 2kts
03-Oct-18 14:57 37.618774 -122.379164 233 21ft 13kts
03-Oct-18 14:58 37.615783 -122.380422 306 21ft 4kts
03-Oct-18 14:59 37.616443 -122.380784 341 21ft 0kts
03-Oct-18 15:00 37.616443 -122.380784 341 21ft 0kts
03-Oct-18 15:01 37.616443 -122.380784 341 21ft 0kts

Navigation Log

Ident Type
Flight plan parsing failed, navigation log unavailable